Swiftwater, Pennsylvania
Current Conditions -  °F | °C
As of 3:53 AM on Friday 31 Oct 2014 (Local Time) from KMPO Reporting Station
Clear Clear  
Wind Chill: 23°   Ceiling: Unl
Heat Index: 28°   Visibility: 10mi
Dew Point: 26°   Wind: 5mph
Humidity: 92%   Direction: 320°NW
Pressure: 29.98"   Gusts: NA
Location:  41.1°N, 75.32°W
Report Text: KMPO 310753Z AUTO 32004KT 10SM CLR M02/M03 A2998 RMK AO2 SLP168 I1000 T10221033
Loading
Personal Weather Stations






























Interactive Weather Map
Tropical Storm Tracking
New forecast layout! Learn more

10-Day Weather Forecast

Advertisements
Track Severe Weather on mobile